Tomahawk, Kentucky
Current Conditions -  °F | °C
As of 2:15 PM on Friday 21 Nov 2014 (Local Time) from KSJS Reporting Station
Clear Clear  
Wind Chill: 37°   Ceiling: Unl
Heat Index: 37°   Visibility: 10mi
Dew Point: 13°   Wind: 3mph
Humidity: 36%   Direction: 100°E
Pressure: 30.46"   Gusts: NA
Location:  37.83°N, 82.62°W
Report Text: KSJS 211915Z AUTO 10003KT 10SM CLR 03/M11 A3046 RMK AO2 T00301107
Loading
Personal Weather Stations






























Interactive Weather Map New forecast layout! Learn more

10-Day Weather Forecast

Advertisements
Track Severe Weather on mobile